sensor_id;sensor_type;location;lat;lon;timestamp;temperature;humidity
69054;DHT22;56125;52.242;4.756;2022-12-18T00:00:24;17.40;37.10
69054;DHT22;56125;52.242;4.756;2022-12-18T00:05:25;17.40;36.90
69054;DHT22;56125;52.242;4.756;2022-12-18T00:10:27;17.40;36.90
69054;DHT22;56125;52.242;4.756;2022-12-18T00:15:28;17.40;36.90
69054;DHT22;56125;52.242;4.756;2022-12-18T00:20:29;17.40;37.00
69054;DHT22;56125;52.242;4.756;2022-12-18T00:25:33;17.40;37.00
69054;DHT22;56125;52.242;4.756;2022-12-18T00:30:34;17.40;36.80
69054;DHT22;56125;52.242;4.756;2022-12-18T00:35:35;17.40;36.90
69054;DHT22;56125;52.242;4.756;2022-12-18T00:40:36;17.40;36.90
69054;DHT22;56125;52.242;4.756;2022-12-18T00:45:37;17.40;36.80
69054;DHT22;56125;52.242;4.756;2022-12-18T00:50:39;17.40;36.80
69054;DHT22;56125;52.242;4.756;2022-12-18T00:55:40;17.40;36.80
69054;DHT22;56125;52.242;4.756;2022-12-18T01:00:43;17.30;36.90
69054;DHT22;56125;52.242;4.756;2022-12-18T01:05:44;17.40;36.80
69054;DHT22;56125;52.242;4.756;2022-12-18T01:10:45;17.30;36.80
69054;DHT22;56125;52.242;4.756;2022-12-18T01:15:49;17.30;36.70
69054;DHT22;56125;52.242;4.756;2022-12-18T01:20:51;17.30;36.70
69054;DHT22;56125;52.242;4.756;2022-12-18T01:25:52;17.30;36.80
69054;DHT22;56125;52.242;4.756;2022-12-18T01:30:53;17.30;36.60
69054;DHT22;56125;52.242;4.756;2022-12-18T01:35:54;17.30;36.50
69054;DHT22;56125;52.242;4.756;2022-12-18T01:40:59;17.30;36.70
69054;DHT22;56125;52.242;4.756;2022-12-18T01:46:00;17.30;36.60
69054;DHT22;56125;52.242;4.756;2022-12-18T01:51:01;17.30;36.50
69054;DHT22;56125;52.242;4.756;2022-12-18T01:56:02;17.30;36.50
69054;DHT22;56125;52.242;4.756;2022-12-18T02:01:04;17.30;36.70
69054;DHT22;56125;52.242;4.756;2022-12-18T02:06:32;17.30;36.50
69054;DHT22;56125;52.242;4.756;2022-12-18T02:12:00;17.30;36.60
69054;DHT22;56125;52.242;4.756;2022-12-18T02:22:41;17.30;36.50
69054;DHT22;56125;52.242;4.756;2022-12-18T02:27:46;17.30;36.40
69054;DHT22;56125;52.242;4.756;2022-12-18T02:32:52;17.30;36.70
69054;DHT22;56125;52.242;4.756;2022-12-18T02:37:54;17.30;36.30
69054;DHT22;56125;52.242;4.756;2022-12-18T02:42:55;17.20;36.50
69054;DHT22;56125;52.242;4.756;2022-12-18T02:48:02;17.20;36.30
69054;DHT22;56125;52.242;4.756;2022-12-18T02:53:24;17.20;36.30
69054;DHT22;56125;52.242;4.756;2022-12-18T03:03:39;17.20;36.20
69054;DHT22;56125;52.242;4.756;2022-12-18T03:08:45;17.20;36.10
69054;DHT22;56125;52.242;4.756;2022-12-18T03:13:49;17.20;36.30
69054;DHT22;56125;52.242;4.756;2022-12-18T03:18:58;17.20;36.20
69054;DHT22;56125;52.242;4.756;2022-12-18T03:24:04;17.20;36.20
69054;DHT22;56125;52.242;4.756;2022-12-18T03:29:12;17.10;36.20
69054;DHT22;56125;52.242;4.756;2022-12-18T03:34:21;17.10;36.10
69054;DHT22;56125;52.242;4.756;2022-12-18T03:39:24;17.10;36.10
69054;DHT22;56125;52.242;4.756;2022-12-18T03:44:47;17.10;36.10
69054;DHT22;56125;52.242;4.756;2022-12-18T03:50:04;17.10;36.10
69054;DHT22;56125;52.242;4.756;2022-12-18T03:55:11;17.10;36.10
69054;DHT22;56125;52.242;4.756;2022-12-18T04:00:14;17.10;36.20
69054;DHT22;56125;52.242;4.756;2022-12-18T04:05:17;17.00;36.00
69054;DHT22;56125;52.242;4.756;2022-12-18T04:10:19;17.00;35.90
69054;DHT22;56125;52.242;4.756;2022-12-18T04:15:20;17.00;36.10
69054;DHT22;56125;52.242;4.756;2022-12-18T04:20:22;17.00;35.90
69054;DHT22;56125;52.242;4.756;2022-12-18T04:25:23;17.00;35.90
69054;DHT22;56125;52.242;4.756;2022-12-18T04:30:24;17.00;36.00
69054;DHT22;56125;52.242;4.756;2022-12-18T04:35:25;17.00;36.00
69054;DHT22;56125;52.242;4.756;2022-12-18T04:40:26;17.00;35.80
69054;DHT22;56125;52.242;4.756;2022-12-18T04:45:27;17.00;35.90
69054;DHT22;56125;52.242;4.756;2022-12-18T04:50:28;17.00;35.80
69054;DHT22;56125;52.242;4.756;2022-12-18T04:55:30;17.00;35.90
69054;DHT22;56125;52.242;4.756;2022-12-18T05:00:31;17.00;35.80
69054;DHT22;56125;52.242;4.756;2022-12-18T05:05:34;17.00;35.80
69054;DHT22;56125;52.242;4.756;2022-12-18T05:10:35;16.90;35.80
69054;DHT22;56125;52.242;4.756;2022-12-18T05:15:36;16.90;35.60
69054;DHT22;56125;52.242;4.756;2022-12-18T05:20:37;16.90;35.60
69054;DHT22;56125;52.242;4.756;2022-12-18T05:25:38;16.90;35.60
69054;DHT22;56125;52.242;4.756;2022-12-18T05:30:39;16.90;35.50
69054;DHT22;56125;52.242;4.756;2022-12-18T05:35:40;16.90;35.60
69054;DHT22;56125;52.242;4.756;2022-12-18T05:40:42;16.90;35.60
69054;DHT22;56125;52.242;4.756;2022-12-18T05:45:44;16.90;35.70
69054;DHT22;56125;52.242;4.756;2022-12-18T05:50:47;16.80;35.60
69054;DHT22;56125;52.242;4.756;2022-12-18T05:55:48;16.80;35.50
69054;DHT22;56125;52.242;4.756;2022-12-18T06:00:49;16.80;35.50
69054;DHT22;56125;52.242;4.756;2022-12-18T06:05:50;16.80;35.40
69054;DHT22;56125;52.242;4.756;2022-12-18T06:10:52;16.80;35.20
69054;DHT22;56125;52.242;4.756;2022-12-18T06:15:55;16.70;35.40
69054;DHT22;56125;52.242;4.756;2022-12-18T06:20:58;16.80;35.40
69054;DHT22;56125;52.242;4.756;2022-12-18T06:26:06;16.70;35.30
69054;DHT22;56125;52.242;4.756;2022-12-18T06:31:08;16.80;35.20
69054;DHT22;56125;52.242;4.756;2022-12-18T06:36:11;16.80;35.20
69054;DHT22;56125;52.242;4.756;2022-12-18T06:41:19;16.70;35.10
69054;DHT22;56125;52.242;4.756;2022-12-18T06:46:21;16.70;35.10
69054;DHT22;56125;52.242;4.756;2022-12-18T06:51:23;16.70;35.00
69054;DHT22;56125;52.242;4.756;2022-12-18T06:56:24;16.70;35.20
69054;DHT22;56125;52.242;4.756;2022-12-18T07:01:25;16.70;34.90
69054;DHT22;56125;52.242;4.756;2022-12-18T07:06:26;16.70;36.10
69054;DHT22;56125;52.242;4.756;2022-12-18T07:11:27;16.70;34.90
69054;DHT22;56125;52.242;4.756;2022-12-18T07:16:28;16.70;35.10
69054;DHT22;56125;52.242;4.756;2022-12-18T07:21:29;16.70;34.90
69054;DHT22;56125;52.242;4.756;2022-12-18T07:26:30;16.60;34.90
69054;DHT22;56125;52.242;4.756;2022-12-18T07:31:31;16.60;34.80
69054;DHT22;56125;52.242;4.756;2022-12-18T07:36:32;16.60;35.00
69054;DHT22;56125;52.242;4.756;2022-12-18T07:41:33;16.60;35.10
69054;DHT22;56125;52.242;4.756;2022-12-18T07:46:34;16.60;34.90
69054;DHT22;56125;52.242;4.756;2022-12-18T07:51:35;16.60;34.80
69054;DHT22;56125;52.242;4.756;2022-12-18T07:56:36;16.60;34.90
69054;DHT22;56125;52.242;4.756;2022-12-18T08:01:37;16.60;35.70
69054;DHT22;56125;52.242;4.756;2022-12-18T08:06:38;16.60;34.80
69054;DHT22;56125;52.242;4.756;2022-12-18T08:11:39;16.50;34.80
69054;DHT22;56125;52.242;4.756;2022-12-18T08:16:40;16.50;34.70
69054;DHT22;56125;52.242;4.756;2022-12-18T08:21:43;16.50;35.90
69054;DHT22;56125;52.242;4.756;2022-12-18T08:26:44;16.50;34.90
69054;DHT22;56125;52.242;4.756;2022-12-18T08:31:45;16.50;34.80
69054;DHT22;56125;52.242;4.756;2022-12-18T08:36:46;16.50;34.70
69054;DHT22;56125;52.242;4.756;2022-12-18T08:41:47;16.50;35.70
69054;DHT22;56125;52.242;4.756;2022-12-18T08:47:08;16.50;34.70
69054;DHT22;56125;52.242;4.756;2022-12-18T08:52:09;16.50;34.70
69054;DHT22;56125;52.242;4.756;2022-12-18T08:57:10;16.50;34.70
69054;DHT22;56125;52.242;4.756;2022-12-18T09:02:11;16.50;34.80
69054;DHT22;56125;52.242;4.756;2022-12-18T09:07:12;16.50;34.80
69054;DHT22;56125;52.242;4.756;2022-12-18T09:12:13;16.50;34.70
69054;DHT22;56125;52.242;4.756;2022-12-18T09:17:14;16.50;34.80
69054;DHT22;56125;52.242;4.756;2022-12-18T09:22:15;16.40;34.80
69054;DHT22;56125;52.242;4.756;2022-12-18T09:27:16;16.50;35.00
69054;DHT22;56125;52.242;4.756;2022-12-18T09:32:17;16.40;34.90
69054;DHT22;56125;52.242;4.756;2022-12-18T09:37:18;16.40;36.00
69054;DHT22;56125;52.242;4.756;2022-12-18T09:42:22;16.40;34.90
69054;DHT22;56125;52.242;4.756;2022-12-18T09:47:37;16.40;35.00
69054;DHT22;56125;52.242;4.756;2022-12-18T09:52:49;16.40;35.00
69054;DHT22;56125;52.242;4.756;2022-12-18T09:57:56;16.40;35.00
69054;DHT22;56125;52.242;4.756;2022-12-18T10:03:08;16.40;34.90
69054;DHT22;56125;52.242;4.756;2022-12-18T10:08:21;16.40;35.00
69054;DHT22;56125;52.242;4.756;2022-12-18T10:13:41;16.40;35.00
69054;DHT22;56125;52.242;4.756;2022-12-18T10:19:04;16.40;35.00
69054;DHT22;56125;52.242;4.756;2022-12-18T10:29:36;16.40;35.00
69054;DHT22;56125;52.242;4.756;2022-12-18T10:34:37;16.40;35.10
69054;DHT22;56125;52.242;4.756;2022-12-18T10:39:38;16.40;35.00
69054;DHT22;56125;52.242;4.756;2022-12-18T10:44:40;16.40;35.00
69054;DHT22;56125;52.242;4.756;2022-12-18T10:49:52;16.30;34.90
69054;DHT22;56125;52.242;4.756;2022-12-18T10:54:59;16.30;34.90
69054;DHT22;56125;52.242;4.756;2022-12-18T11:05:31;16.30;35.00
69054;DHT22;56125;52.242;4.756;2022-12-18T11:10:36;16.40;35.00
69054;DHT22;56125;52.242;4.756;2022-12-18T11:15:40;16.30;35.20
69054;DHT22;56125;52.242;4.756;2022-12-18T11:20:41;16.40;35.10
69054;DHT22;56125;52.242;4.756;2022-12-18T11:26:08;16.30;35.00
69054;DHT22;56125;52.242;4.756;2022-12-18T11:31:22;16.30;35.00
69054;DHT22;56125;52.242;4.756;2022-12-18T11:36:23;16.30;35.10
69054;DHT22;56125;52.242;4.756;2022-12-18T11:41:58;16.30;35.00
69054;DHT22;56125;52.242;4.756;2022-12-18T11:47:25;16.30;35.00
69054;DHT22;56125;52.242;4.756;2022-12-18T11:52:38;16.30;35.10
69054;DHT22;56125;52.242;4.756;2022-12-18T11:58:07;16.30;35.10
69054;DHT22;56125;52.242;4.756;2022-12-18T12:03:31;16.30;35.30
69054;DHT22;56125;52.242;4.756;2022-12-18T12:09:07;16.30;35.20
69054;DHT22;56125;52.242;4.756;2022-12-18T12:14:08;16.30;35.50
69054;DHT22;56125;52.242;4.756;2022-12-18T12:30:08;16.30;36.90
69054;DHT22;56125;52.242;4.756;2022-12-18T12:40:27;16.40;37.80
69054;DHT22;56125;52.242;4.756;2022-12-18T12:50:34;16.50;38.80
69054;DHT22;56125;52.242;4.756;2022-12-18T12:55:36;16.50;39.30
69054;DHT22;56125;52.242;4.756;2022-12-18T13:00:52;16.50;39.20
69054;DHT22;56125;52.242;4.756;2022-12-18T13:05:57;16.60;40.70
69054;DHT22;56125;52.242;4.756;2022-12-18T13:10:59;16.60;40.50
69054;DHT22;56125;52.242;4.756;2022-12-18T13:16:21;16.70;40.80
69054;DHT22;56125;52.242;4.756;2022-12-18T13:21:33;16.80;41.00
69054;DHT22;56125;52.242;4.756;2022-12-18T13:26:34;16.80;40.90
69054;DHT22;56125;52.242;4.756;2022-12-18T13:36:42;16.70;40.30
69054;DHT22;56125;52.242;4.756;2022-12-18T13:41:45;16.60;39.90
69054;DHT22;56125;52.242;4.756;2022-12-18T13:46:48;16.60;39.90
69054;DHT22;56125;52.242;4.756;2022-12-18T13:51:52;16.60;40.00
69054;DHT22;56125;52.242;4.756;2022-12-18T13:56:54;16.60;39.90
69054;DHT22;56125;52.242;4.756;2022-12-18T14:01:57;16.60;39.90
69054;DHT22;56125;52.242;4.756;2022-12-18T14:07:04;16.60;39.80
69054;DHT22;56125;52.242;4.756;2022-12-18T14:12:06;16.60;39.60
69054;DHT22;56125;52.242;4.756;2022-12-18T14:17:26;16.60;39.70
69054;DHT22;56125;52.242;4.756;2022-12-18T14:22:27;16.50;39.70
69054;DHT22;56125;52.242;4.756;2022-12-18T14:27:30;16.60;39.60
69054;DHT22;56125;52.242;4.756;2022-12-18T14:32:31;16.50;39.60
69054;DHT22;56125;52.242;4.756;2022-12-18T14:37:32;16.60;39.60
69054;DHT22;56125;52.242;4.756;2022-12-18T14:42:33;16.60;39.50
69054;DHT22;56125;52.242;4.756;2022-12-18T14:47:34;16.60;39.60
69054;DHT22;56125;52.242;4.756;2022-12-18T14:52:36;16.60;39.30
69054;DHT22;56125;52.242;4.756;2022-12-18T14:57:37;16.60;39.60
69054;DHT22;56125;52.242;4.756;2022-12-18T15:02:41;16.60;39.30
69054;DHT22;56125;52.242;4.756;2022-12-18T15:07:44;16.70;39.50
69054;DHT22;56125;52.242;4.756;2022-12-18T15:18:00;16.70;39.40
69054;DHT22;56125;52.242;4.756;2022-12-18T15:23:01;16.70;39.50
69054;DHT22;56125;52.242;4.756;2022-12-18T15:28:03;16.70;39.40
69054;DHT22;56125;52.242;4.756;2022-12-18T15:33:26;16.70;39.60
69054;DHT22;56125;52.242;4.756;2022-12-18T15:38:28;16.80;39.40
69054;DHT22;56125;52.242;4.756;2022-12-18T15:43:29;16.80;39.40
69054;DHT22;56125;52.242;4.756;2022-12-18T15:48:44;16.80;39.30
69054;DHT22;56125;52.242;4.756;2022-12-18T15:53:46;16.80;39.30
69054;DHT22;56125;52.242;4.756;2022-12-18T15:58:48;16.90;39.20
69054;DHT22;56125;52.242;4.756;2022-12-18T16:03:49;16.90;39.00
69054;DHT22;56125;52.242;4.756;2022-12-18T16:08:50;16.90;38.90
69054;DHT22;56125;52.242;4.756;2022-12-18T16:13:51;16.90;38.80
69054;DHT22;56125;52.242;4.756;2022-12-18T16:18:52;16.90;38.70
69054;DHT22;56125;52.242;4.756;2022-12-18T16:23:53;16.90;38.60
69054;DHT22;56125;52.242;4.756;2022-12-18T16:28:54;17.00;38.60
69054;DHT22;56125;52.242;4.756;2022-12-18T16:34:20;16.90;38.50
69054;DHT22;56125;52.242;4.756;2022-12-18T16:39:27;17.00;38.50
69054;DHT22;56125;52.242;4.756;2022-12-18T16:44:28;17.00;38.50
69054;DHT22;56125;52.242;4.756;2022-12-18T16:49:29;17.00;38.50
69054;DHT22;56125;52.242;4.756;2022-12-18T16:54:30;17.00;39.00
69054;DHT22;56125;52.242;4.756;2022-12-18T16:59:31;17.00;38.60
69054;DHT22;56125;52.242;4.756;2022-12-18T17:04:35;17.00;38.80
69054;DHT22;56125;52.242;4.756;2022-12-18T17:09:36;17.00;38.90
69054;DHT22;56125;52.242;4.756;2022-12-18T17:14:38;17.00;39.00
69054;DHT22;56125;52.242;4.756;2022-12-18T17:19:39;17.00;39.00
69054;DHT22;56125;52.242;4.756;2022-12-18T17:24:40;17.00;39.00
69054;DHT22;56125;52.242;4.756;2022-12-18T17:29:41;17.00;39.00
69054;DHT22;56125;52.242;4.756;2022-12-18T17:34:42;17.00;39.10
69054;DHT22;56125;52.242;4.756;2022-12-18T17:39:43;17.00;39.10
69054;DHT22;56125;52.242;4.756;2022-12-18T17:44:44;17.00;39.20
69054;DHT22;56125;52.242;4.756;2022-12-18T17:49:45;17.00;39.20
69054;DHT22;56125;52.242;4.756;2022-12-18T17:54:46;17.00;39.30
69054;DHT22;56125;52.242;4.756;2022-12-18T17:59:47;17.00;39.30
69054;DHT22;56125;52.242;4.756;2022-12-18T18:04:48;16.90;39.30
69054;DHT22;56125;52.242;4.756;2022-12-18T18:09:49;17.00;39.40
69054;DHT22;56125;52.242;4.756;2022-12-18T18:14:50;16.90;39.40
69054;DHT22;56125;52.242;4.756;2022-12-18T18:19:51;16.90;39.40
69054;DHT22;56125;52.242;4.756;2022-12-18T18:24:52;16.90;39.30
69054;DHT22;56125;52.242;4.756;2022-12-18T18:29:53;16.90;39.80
69054;DHT22;56125;52.242;4.756;2022-12-18T18:34:54;17.00;41.00
69054;DHT22;56125;52.242;4.756;2022-12-18T18:39:55;17.10;41.40
69054;DHT22;56125;52.242;4.756;2022-12-18T18:44:56;17.10;42.80
69054;DHT22;56125;52.242;4.756;2022-12-18T18:49:57;17.20;41.90
69054;DHT22;56125;52.242;4.756;2022-12-18T18:54:59;17.30;42.30
69054;DHT22;56125;52.242;4.756;2022-12-18T19:00:00;17.30;42.20
69054;DHT22;56125;52.242;4.756;2022-12-18T19:05:01;17.30;42.30
69054;DHT22;56125;52.242;4.756;2022-12-18T19:10:02;17.30;42.30
69054;DHT22;56125;52.242;4.756;2022-12-18T19:15:04;17.40;42.40
69054;DHT22;56125;52.242;4.756;2022-12-18T19:20:05;17.40;42.40
69054;DHT22;56125;52.242;4.756;2022-12-18T19:25:07;17.40;43.50
69054;DHT22;56125;52.242;4.756;2022-12-18T19:30:09;17.40;42.40
69054;DHT22;56125;52.242;4.756;2022-12-18T19:35:10;17.40;42.30
69054;DHT22;56125;52.242;4.756;2022-12-18T19:40:11;17.40;42.40
69054;DHT22;56125;52.242;4.756;2022-12-18T19:45:12;17.50;42.50
69054;DHT22;56125;52.242;4.756;2022-12-18T19:50:13;17.50;42.50
69054;DHT22;56125;52.242;4.756;2022-12-18T19:55:14;17.50;42.50
69054;DHT22;56125;52.242;4.756;2022-12-18T20:00:16;17.50;42.50
69054;DHT22;56125;52.242;4.756;2022-12-18T20:05:17;17.50;42.50
69054;DHT22;56125;52.242;4.756;2022-12-18T20:10:24;17.50;42.70
69054;DHT22;56125;52.242;4.756;2022-12-18T20:15:25;17.50;42.50
69054;DHT22;56125;52.242;4.756;2022-12-18T20:20:26;17.50;42.20
69054;DHT22;56125;52.242;4.756;2022-12-18T20:25:27;17.50;41.80
69054;DHT22;56125;52.242;4.756;2022-12-18T20:30:28;17.40;41.80
69054;DHT22;56125;52.242;4.756;2022-12-18T20:35:31;17.40;41.70
69054;DHT22;56125;52.242;4.756;2022-12-18T20:40:34;17.40;41.30
69054;DHT22;56125;52.242;4.756;2022-12-18T20:45:35;17.40;41.10
69054;DHT22;56125;52.242;4.756;2022-12-18T20:50:36;17.40;41.00
69054;DHT22;56125;52.242;4.756;2022-12-18T20:55:41;17.40;41.10
69054;DHT22;56125;52.242;4.756;2022-12-18T21:00:42;17.40;40.80
69054;DHT22;56125;52.242;4.756;2022-12-18T21:05:43;17.40;40.80
69054;DHT22;56125;52.242;4.756;2022-12-18T21:10:44;17.40;40.60
69054;DHT22;56125;52.242;4.756;2022-12-18T21:15:45;17.40;40.70
69054;DHT22;56125;52.242;4.756;2022-12-18T21:20:46;17.40;40.50
69054;DHT22;56125;52.242;4.756;2022-12-18T21:25:47;17.40;40.60
69054;DHT22;56125;52.242;4.756;2022-12-18T21:30:48;17.40;40.50
69054;DHT22;56125;52.242;4.756;2022-12-18T21:35:50;18.10;40.90
69054;DHT22;56125;52.242;4.756;2022-12-18T21:40:51;17.40;40.40
69054;DHT22;56125;52.242;4.756;2022-12-18T21:45:54;17.40;40.40
69054;DHT22;56125;52.242;4.756;2022-12-18T21:50:55;17.40;40.40
69054;DHT22;56125;52.242;4.756;2022-12-18T21:56:00;17.40;40.40
69054;DHT22;56125;52.242;4.756;2022-12-18T22:01:01;17.40;41.30
69054;DHT22;56125;52.242;4.756;2022-12-18T22:06:02;17.30;40.30
69054;DHT22;56125;52.242;4.756;2022-12-18T22:11:03;17.40;40.60
69054;DHT22;56125;52.242;4.756;2022-12-18T22:16:04;17.30;41.90
69054;DHT22;56125;52.242;4.756;2022-12-18T22:21:05;17.30;42.10
69054;DHT22;56125;52.242;4.756;2022-12-18T22:26:07;17.30;42.20
69054;DHT22;56125;52.242;4.756;2022-12-18T22:31:10;17.30;42.20
69054;DHT22;56125;52.242;4.756;2022-12-18T22:36:11;17.30;42.00
69054;DHT22;56125;52.242;4.756;2022-12-18T22:41:12;17.30;42.00
69054;DHT22;56125;52.242;4.756;2022-12-18T22:46:17;17.30;41.80
69054;DHT22;56125;52.242;4.756;2022-12-18T22:51:19;17.30;41.70
69054;DHT22;56125;52.242;4.756;2022-12-18T22:56:20;17.30;41.60
69054;DHT22;56125;52.242;4.756;2022-12-18T23:01:26;17.30;41.60
69054;DHT22;56125;52.242;4.756;2022-12-18T23:06:28;17.30;41.40
69054;DHT22;56125;52.242;4.756;2022-12-18T23:11:29;17.30;41.40
69054;DHT22;56125;52.242;4.756;2022-12-18T23:16:30;17.30;41.30
69054;DHT22;56125;52.242;4.756;2022-12-18T23:21:31;17.30;41.20
69054;DHT22;56125;52.242;4.756;2022-12-18T23:26:32;17.30;41.20
69054;DHT22;56125;52.242;4.756;2022-12-18T23:31:35;17.30;41.10
69054;DHT22;56125;52.242;4.756;2022-12-18T23:36:37;17.20;41.00
69054;DHT22;56125;52.242;4.756;2022-12-18T23:41:38;17.20;41.00
69054;DHT22;56125;52.242;4.756;2022-12-18T23:46:39;17.30;41.00
69054;DHT22;56125;52.242;4.756;2022-12-18T23:51:40;17.20;40.90
69054;DHT22;56125;52.242;4.756;2022-12-18T23:56:41;17.20;40.90
